Celina — V2GV5 — position and weather

sailwx.info

Track history (hours):
 
Tides and Currents Weather Stations Pressure Air Temp Water Temp Dewpoint Dewpoint Depression Visibility Wind Speed Wind Dir Waves Ship Positions

Celina

Last reported at 2018-Jan-20 07:00 UTC. Time now 2018-Jan-20 07:08 UTC.
Position N 53°53' E 008°43'.

Length 105 m; draft 6.9 m.

Type: Cargo ship. MMSI: 304099000.

Date/timePositionNaut miles runAvg speedWind from/ knotsBaromVisibWave heightAir tempDewpointWater temp
2018-Jan-20 07:00N 53°53' E 008°43'612.2
2018-Jan-20 06:30N 53°51' E 008°53'612.1
2018-Jan-20 06:00N 53°52' E 009°03'4 7.5
2018-Jan-20 05:30N 53°54' E 009°09'0 0.0
2018-Jan-20 05:00N 53°54' E 009°09'2 3.5
2018-Jan-20 04:30N 53°55' E 009°11'4 8.6
2018-Jan-20 04:00N 53°58' E 009°16'4 8.0
2018-Jan-20 03:30N 54°02' E 009°18'3 5.6
2018-Jan-20 03:00N 54°05' E 009°19'4 8.3
2018-Jan-20 02:30N 54°09' E 009°21'4 8.4
2018-Jan-20 02:00N 54°11' E 009°27'4 8.5
2018-Jan-20 01:30N 54°12' E 009°34'4 7.4
2018-Jan-20 01:00N 54°15' E 009°37'4 7.6
2018-Jan-20 00:30N 54°18' E 009°42'4 8.0
2018-Jan-20 00:00N 54°21' E 009°46'28 5.2
2018-Jan-19 18:43N 54°33' E 010°29'2 9.7
2018-Jan-19 18:30N 54°34' E 010°32'510.0
2018-Jan-19 18:00N 54°35' E 010°41'510.2
2018-Jan-19 17:30N 54°35' E 010°49'5 9.9
2018-Jan-19 17:00N 54°36' E 010°58'5 9.5
2018-Jan-19 16:30N 54°36' E 011°06'5 9.4
2018-Jan-19 16:00N 54°35' E 011°14'5 9.7
2018-Jan-19 15:30N 54°33' E 011°22'5 9.6
2018-Jan-19 15:00N 54°31' E 011°29'5 9.3
2018-Jan-19 14:30N 54°29' E 011°37'5 9.2
2018-Jan-19 14:00N 54°28' E 011°44'13 9.1
2018-Jan-19 12:32N 54°27' E 012°07'0 9.5
2018-Jan-19 12:30N 54°27' E 012°07'5 9.0
2018-Jan-19 12:00N 54°31' E 012°12'87 9.0
2018-Jan-19 02:24N 54°41' E 014°41'410.1
2018-Jan-19 02:00N 54°42' E 014°48'510.2
2018-Jan-19 01:30N 54°44' E 014°56'510.0
2018-Jan-19 01:00N 54°45' E 015°04'510.0
2018-Jan-19 00:30N 54°47' E 015°13'  
2018-Jan-12 15:00N 57°53' E 007°18'4 7.7
2018-Jan-12 14:30N 57°53' E 007°10'4 8.5
2018-Jan-12 14:01N 57°53' E 007°03'4 8.3
2018-Jan-12 13:31N 57°55' E 006°56'5 9.3
2018-Jan-12 13:00N 57°58' E 006°48'510.1
2018-Jan-12 12:30N 58°00' E 006°40'510.5
2018-Jan-12 12:00N 58°02' E 006°31'510.5
2018-Jan-12 11:30N 58°05' E 006°22'510.3
2018-Jan-12 11:01N 58°09' E 006°15'510.0
2018-Jan-12 10:30N 58°12' E 006°08'510.1
2018-Jan-12 10:00N 58°15' E 006°00'5 9.1
2018-Jan-12 09:30N 58°18' E 005°54'4 8.9
2018-Jan-12 09:01N 58°21' E 005°48'5 9.2
2018-Jan-12 08:31N 58°25' E 005°42'4 8.8
2018-Jan-12 08:01N 58°28' E 005°37'5 8.8
2018-Jan-12 07:30N 58°32' E 005°33'4 8.5
2018-Jan-12 07:01N 58°36' E 005°30'4 8.8
2018-Jan-12 06:30N 58°40' E 005°26'5 9.0
2018-Jan-12 06:00N 58°44' E 005°22'5 9.1
2018-Jan-12 05:30N 58°48' E 005°19'5 9.8
2018-Jan-12 05:00N 58°53' E 005°19'510.2
2018-Jan-12 04:30N 58°58' E 005°19'510.5
2018-Jan-12 04:00N 59°03' E 005°19'511.1
2018-Jan-12 03:31N 59°09' E 005°20'611.6
2018-Jan-12 03:00N 59°15' E 005°21'611.0
2018-Jan-12 02:30N 59°20' E 005°19'4 8.3
2018-Jan-12 02:00N 59°24' E 005°16'0 0.2
2018-Jan-12 01:30N 59°24' E 005°16'0 0.0
2018-Jan-12 01:00N 59°24' E 005°16'0 0.0
2018-Jan-12 00:30N 59°24' E 005°16'0 0.0
2018-Jan-12 00:00N 59°24' E 005°16'0 0.0
2018-Jan-11 23:30N 59°24' E 005°16'0 0.0
2018-Jan-11 23:00N 59°24' E 005°16'0 0.0
2018-Jan-11 22:30N 59°24' E 005°16'0 0.0
2018-Jan-11 22:00N 59°24' E 005°16'0 0.0
2018-Jan-11 21:30N 59°24' E 005°16'0 0.0
2018-Jan-11 21:00N 59°24' E 005°16'0 0.0
2018-Jan-11 20:30N 59°24' E 005°16'0 0.0
2018-Jan-11 20:00N 59°24' E 005°16'0 0.0
2018-Jan-11 19:30N 59°24' E 005°16'0 0.0
2018-Jan-11 19:00N 59°24' E 005°16'0 0.0
2018-Jan-11 18:30N 59°24' E 005°16'0 0.0
2018-Jan-11 18:00N 59°24' E 005°16'0 0.0
2018-Jan-11 17:30N 59°24' E 005°16'0 0.0
2018-Jan-11 17:00N 59°24' E 005°16'0 0.0
2018-Jan-11 16:30N 59°24' E 005°16'0 0.0
2018-Jan-11 16:00N 59°24' E 005°16'0 0.0
2018-Jan-11 15:30N 59°24' E 005°16'0 0.0
2018-Jan-11 15:00N 59°24' E 005°16'0 0.0
2018-Jan-11 14:30N 59°24' E 005°16'0 0.0
2018-Jan-11 14:00N 59°24' E 005°16'0 0.0
2018-Jan-11 13:30N 59°24' E 005°16'0 0.0
2018-Jan-11 13:00N 59°24' E 005°16'0 0.0
2018-Jan-11 12:30N 59°24' E 005°16'0 0.0
2018-Jan-11 12:00N 59°24' E 005°16'0 0.0
2018-Jan-11 11:30N 59°24' E 005°16'0 0.0
2018-Jan-11 11:00N 59°24' E 005°16'0 0.0
2018-Jan-11 10:30N 59°24' E 005°16'0 0.0
2018-Jan-11 10:00N 59°24' E 005°16'0 0.0
2018-Jan-11 09:30N 59°24' E 005°16'0 0.0
2018-Jan-11 09:00N 59°24' E 005°16'0 0.0
2018-Jan-11 08:30N 59°24' E 005°16'0 0.0
2018-Jan-11 08:00N 59°24' E 005°16'0 0.0
2018-Jan-11 07:30N 59°24' E 005°16'0 0.0
2018-Jan-11 07:00N 59°24' E 005°16'0 0.0
2018-Jan-11 06:30N 59°24' E 005°16'0 0.0
2018-Jan-11 06:00N 59°24' E 005°16'0 0.0
2018-Jan-11 05:30N 59°24' E 005°16'0 0.0
2018-Jan-11 05:00N 59°24' E 005°16'0 0.0
2018-Jan-11 04:30N 59°24' E 005°16'0 0.0
2018-Jan-11 04:00N 59°24' E 005°16'0 0.0
2018-Jan-11 03:30N 59°24' E 005°16'0 0.0
2018-Jan-11 03:00N 59°24' E 005°16'0 0.0
2018-Jan-11 02:30N 59°24' E 005°16'0 0.0
2018-Jan-11 02:00N 59°24' E 005°16'0 0.0
2018-Jan-11 01:30N 59°24' E 005°16'0 0.0
2018-Jan-11 01:00N 59°24' E 005°16'0 0.0
2018-Jan-11 00:30N 59°24' E 005°16'0 0.0
2018-Jan-11 00:00N 59°24' E 005°16'0 0.0
2018-Jan-10 23:30N 59°24' E 005°16'0 0.0
2018-Jan-10 23:00N 59°24' E 005°16'0 0.0
2018-Jan-10 22:30N 59°24' E 005°16'0 0.0
2018-Jan-10 22:00N 59°24' E 005°16'0 0.0
2018-Jan-10 21:30N 59°24' E 005°16'0 0.0
2018-Jan-10 21:00N 59°24' E 005°16'0 0.0
2018-Jan-10 20:30N 59°24' E 005°16'0 0.0
2018-Jan-10 20:00N 59°24' E 005°16'0 0.0
2018-Jan-10 19:30N 59°24' E 005°16'0 0.0
2018-Jan-10 19:00N 59°24' E 005°16'0 0.0
2018-Jan-10 18:30N 59°24' E 005°16'0 0.0
2018-Jan-10 18:00N 59°24' E 005°16'0 0.0
2018-Jan-10 17:30N 59°24' E 005°16'0 0.0
2018-Jan-10 17:00N 59°24' E 005°16'0 0.0
2018-Jan-10 16:30N 59°24' E 005°16'0 0.0
2018-Jan-10 16:00N 59°24' E 005°16'0 0.0
2018-Jan-10 15:30N 59°24' E 005°16'0 0.0
2018-Jan-10 15:00N 59°24' E 005°16'0 0.0
2018-Jan-10 14:30N 59°24' E 005°16'0 0.0
2018-Jan-10 14:00N 59°24' E 005°16'0 0.0
2018-Jan-10 13:30N 59°24' E 005°16'0 0.0
2018-Jan-10 13:00N 59°24' E 005°16'0 0.0
2018-Jan-10 12:30N 59°24' E 005°16'0 0.0
2018-Jan-10 12:00N 59°24' E 005°16'0 0.0
2018-Jan-10 11:30N 59°24' E 005°16'0 0.0
2018-Jan-10 11:01N 59°24' E 005°16'0 0.0
2018-Jan-10 10:30N 59°24' E 005°16'0 0.0
2018-Jan-10 10:00N 59°24' E 005°16'0 0.0
2018-Jan-10 09:30N 59°24' E 005°16'0 0.0
2018-Jan-10 09:00N 59°24' E 005°16'0 0.0
2018-Jan-10 08:30N 59°24' E 005°16'0 0.0
2018-Jan-10 08:00N 59°24' E 005°16'0 0.0
2018-Jan-10 07:30N 59°24' E 005°16'0 0.0
2018-Jan-10 07:00N 59°24' E 005°16'  
Track history (hours):
 
Tides and Currents Weather Stations Pressure Air Temp Water Temp Dewpoint Dewpoint Depression Visibility Wind Speed Wind Dir Waves Ship Positions

Celina

Last reported at 2018-Jan-20 07:00 UTC. Time now 2018-Jan-20 07:08 UTC.
Position N 53°53' E 008°43'.

Length 105 m; draft 6.9 m.

Type: Cargo ship. MMSI: 304099000.

Date/timePositionNaut miles runAvg speedWind from/ knotsBaromVisibWave heightAir tempDewpointWater temp
2018-Jan-20 07:00N 53°53' E 008°43'612.2
2018-Jan-20 06:30N 53°51' E 008°53'612.1
2018-Jan-20 06:00N 53°52' E 009°03'4 7.5
2018-Jan-20 05:30N 53°54' E 009°09'0 0.0
2018-Jan-20 05:00N 53°54' E 009°09'2 3.5
2018-Jan-20 04:30N 53°55' E 009°11'4 8.6
2018-Jan-20 04:00N 53°58' E 009°16'4 8.0
2018-Jan-20 03:30N 54°02' E 009°18'3 5.6
2018-Jan-20 03:00N 54°05' E 009°19'4 8.3
2018-Jan-20 02:30N 54°09' E 009°21'4 8.4
2018-Jan-20 02:00N 54°11' E 009°27'4 8.5
2018-Jan-20 01:30N 54°12' E 009°34'4 7.4
2018-Jan-20 01:00N 54°15' E 009°37'4 7.6
2018-Jan-20 00:30N 54°18' E 009°42'4 8.0
2018-Jan-20 00:00N 54°21' E 009°46'28 5.2
2018-Jan-19 18:43N 54°33' E 010°29'2 9.7
2018-Jan-19 18:30N 54°34' E 010°32'510.0
2018-Jan-19 18:00N 54°35' E 010°41'510.2
2018-Jan-19 17:30N 54°35' E 010°49'5 9.9
2018-Jan-19 17:00N 54°36' E 010°58'5 9.5
2018-Jan-19 16:30N 54°36' E 011°06'5 9.4
2018-Jan-19 16:00N 54°35' E 011°14'5 9.7
2018-Jan-19 15:30N 54°33' E 011°22'5 9.6
2018-Jan-19 15:00N 54°31' E 011°29'5 9.3
2018-Jan-19 14:30N 54°29' E 011°37'5 9.2
2018-Jan-19 14:00N 54°28' E 011°44'13 9.1
2018-Jan-19 12:32N 54°27' E 012°07'0 9.5
2018-Jan-19 12:30N 54°27' E 012°07'5 9.0
2018-Jan-19 12:00N 54°31' E 012°12'87 9.0
2018-Jan-19 02:24N 54°41' E 014°41'410.1
2018-Jan-19 02:00N 54°42' E 014°48'510.2
2018-Jan-19 01:30N 54°44' E 014°56'510.0
2018-Jan-19 01:00N 54°45' E 015°04'510.0
2018-Jan-19 00:30N 54°47' E 015°13'  
2018-Jan-12 15:00N 57°53' E 007°18'4 7.7
2018-Jan-12 14:30N 57°53' E 007°10'4 8.5
2018-Jan-12 14:01N 57°53' E 007°03'4 8.3
2018-Jan-12 13:31N 57°55' E 006°56'5 9.3
2018-Jan-12 13:00N 57°58' E 006°48'510.1
2018-Jan-12 12:30N 58°00' E 006°40'510.5
2018-Jan-12 12:00N 58°02' E 006°31'510.5
2018-Jan-12 11:30N 58°05' E 006°22'510.3
2018-Jan-12 11:01N 58°09' E 006°15'510.0
2018-Jan-12 10:30N 58°12' E 006°08'510.1
2018-Jan-12 10:00N 58°15' E 006°00'5 9.1
2018-Jan-12 09:30N 58°18' E 005°54'4 8.9
2018-Jan-12 09:01N 58°21' E 005°48'5 9.2
2018-Jan-12 08:31N 58°25' E 005°42'4 8.8
2018-Jan-12 08:01N 58°28' E 005°37'5 8.8
2018-Jan-12 07:30N 58°32' E 005°33'4 8.5
2018-Jan-12 07:01N 58°36' E 005°30'4 8.8
2018-Jan-12 06:30N 58°40' E 005°26'5 9.0
2018-Jan-12 06:00N 58°44' E 005°22'5 9.1
2018-Jan-12 05:30N 58°48' E 005°19'5 9.8
2018-Jan-12 05:00N 58°53' E 005°19'510.2
2018-Jan-12 04:30N 58°58' E 005°19'510.5
2018-Jan-12 04:00N 59°03' E 005°19'511.1
2018-Jan-12 03:31N 59°09' E 005°20'611.6
2018-Jan-12 03:00N 59°15' E 005°21'611.0
2018-Jan-12 02:30N 59°20' E 005°19'4 8.3
2018-Jan-12 02:00N 59°24' E 005°16'0 0.2
2018-Jan-12 01:30N 59°24' E 005°16'0 0.0
2018-Jan-12 01:00N 59°24' E 005°16'0 0.0
2018-Jan-12 00:30N 59°24' E 005°16'0 0.0
2018-Jan-12 00:00N 59°24' E 005°16'0 0.0
2018-Jan-11 23:30N 59°24' E 005°16'0 0.0
2018-Jan-11 23:00N 59°24' E 005°16'0 0.0
2018-Jan-11 22:30N 59°24' E 005°16'0 0.0
2018-Jan-11 22:00N 59°24' E 005°16'0 0.0
2018-Jan-11 21:30N 59°24' E 005°16'0 0.0
2018-Jan-11 21:00N 59°24' E 005°16'0 0.0
2018-Jan-11 20:30N 59°24' E 005°16'0 0.0
2018-Jan-11 20:00N 59°24' E 005°16'0 0.0
2018-Jan-11 19:30N 59°24' E 005°16'0 0.0
2018-Jan-11 19:00N 59°24' E 005°16'0 0.0
2018-Jan-11 18:30N 59°24' E 005°16'0 0.0
2018-Jan-11 18:00N 59°24' E 005°16'0 0.0
2018-Jan-11 17:30N 59°24' E 005°16'0 0.0
2018-Jan-11 17:00N 59°24' E 005°16'0 0.0
2018-Jan-11 16:30N 59°24' E 005°16'0 0.0
2018-Jan-11 16:00N 59°24' E 005°16'0 0.0
2018-Jan-11 15:30N 59°24' E 005°16'0 0.0
2018-Jan-11 15:00N 59°24' E 005°16'0 0.0
2018-Jan-11 14:30N 59°24' E 005°16'0 0.0
2018-Jan-11 14:00N 59°24' E 005°16'0 0.0
2018-Jan-11 13:30N 59°24' E 005°16'0 0.0
2018-Jan-11 13:00N 59°24' E 005°16'0 0.0
2018-Jan-11 12:30N 59°24' E 005°16'0 0.0
2018-Jan-11 12:00N 59°24' E 005°16'0 0.0
2018-Jan-11 11:30N 59°24' E 005°16'0 0.0
2018-Jan-11 11:00N 59°24' E 005°16'0 0.0
2018-Jan-11 10:30N 59°24' E 005°16'0 0.0
2018-Jan-11 10:00N 59°24' E 005°16'0 0.0
2018-Jan-11 09:30N 59°24' E 005°16'0 0.0
2018-Jan-11 09:00N 59°24' E 005°16'0 0.0
2018-Jan-11 08:30N 59°24' E 005°16'0 0.0
2018-Jan-11 08:00N 59°24' E 005°16'0 0.0
2018-Jan-11 07:30N 59°24' E 005°16'0 0.0
2018-Jan-11 07:00N 59°24' E 005°16'0 0.0
2018-Jan-11 06:30N 59°24' E 005°16'0 0.0
2018-Jan-11 06:00N 59°24' E 005°16'0 0.0
2018-Jan-11 05:30N 59°24' E 005°16'0 0.0
2018-Jan-11 05:00N 59°24' E 005°16'0 0.0
2018-Jan-11 04:30N 59°24' E 005°16'0 0.0
2018-Jan-11 04:00N 59°24' E 005°16'0 0.0
2018-Jan-11 03:30N 59°24' E 005°16'0 0.0
2018-Jan-11 03:00N 59°24' E 005°16'0 0.0
2018-Jan-11 02:30N 59°24' E 005°16'0 0.0
2018-Jan-11 02:00N 59°24' E 005°16'0 0.0
2018-Jan-11 01:30N 59°24' E 005°16'0 0.0
2018-Jan-11 01:00N 59°24' E 005°16'0 0.0
2018-Jan-11 00:30N 59°24' E 005°16'0 0.0
2018-Jan-11 00:00N 59°24' E 005°16'0 0.0
2018-Jan-10 23:30N 59°24' E 005°16'0 0.0
2018-Jan-10 23:00N 59°24' E 005°16'0 0.0
2018-Jan-10 22:30N 59°24' E 005°16'0 0.0
2018-Jan-10 22:00N 59°24' E 005°16'0 0.0
2018-Jan-10 21:30N 59°24' E 005°16'0 0.0
2018-Jan-10 21:00N 59°24' E 005°16'0 0.0
2018-Jan-10 20:30N 59°24' E 005°16'0 0.0
2018-Jan-10 20:00N 59°24' E 005°16'0 0.0
2018-Jan-10 19:30N 59°24' E 005°16'0 0.0
2018-Jan-10 19:00N 59°24' E 005°16'0 0.0
2018-Jan-10 18:30N 59°24' E 005°16'0 0.0
2018-Jan-10 18:00N 59°24' E 005°16'0 0.0
2018-Jan-10 17:30N 59°24' E 005°16'0 0.0
2018-Jan-10 17:00N 59°24' E 005°16'0 0.0
2018-Jan-10 16:30N 59°24' E 005°16'0 0.0
2018-Jan-10 16:00N 59°24' E 005°16'0 0.0
2018-Jan-10 15:30N 59°24' E 005°16'0 0.0
2018-Jan-10 15:00N 59°24' E 005°16'0 0.0
2018-Jan-10 14:30N 59°24' E 005°16'0 0.0
2018-Jan-10 14:00N 59°24' E 005°16'0 0.0
2018-Jan-10 13:30N 59°24' E 005°16'0 0.0
2018-Jan-10 13:00N 59°24' E 005°16'0 0.0
2018-Jan-10 12:30N 59°24' E 005°16'0 0.0
2018-Jan-10 12:00N 59°24' E 005°16'0 0.0
2018-Jan-10 11:30N 59°24' E 005°16'0 0.0
2018-Jan-10 11:01N 59°24' E 005°16'0 0.0
2018-Jan-10 10:30N 59°24' E 005°16'0 0.0
2018-Jan-10 10:00N 59°24' E 005°16'0 0.0
2018-Jan-10 09:30N 59°24' E 005°16'0 0.0
2018-Jan-10 09:00N 59°24' E 005°16'0 0.0
2018-Jan-10 08:30N 59°24' E 005°16'0 0.0
2018-Jan-10 08:00N 59°24' E 005°16'0 0.0
2018-Jan-10 07:30N 59°24' E 005°16'0 0.0
2018-Jan-10 07:00N 59°24' E 005°16'  

Dump ship's entire track history